sensor_id;sensor_type;location;lat;lon;timestamp;P1;durP1;ratioP1;P2;durP2;ratioP2
65552;SDS011;52465;51.560;14.368;2022-08-19T00:00:32;5.82;;;4.32;;
65552;SDS011;52465;51.560;14.368;2022-08-19T00:02:57;5.70;;;4.73;;
65552;SDS011;52465;51.560;14.368;2022-08-19T00:05:23;5.28;;;4.65;;
65552;SDS011;52465;51.560;14.368;2022-08-19T00:07:48;6.18;;;4.70;;
65552;SDS011;52465;51.560;14.368;2022-08-19T00:10:15;4.80;;;4.32;;
65552;SDS011;52465;51.560;14.368;2022-08-19T00:12:42;5.13;;;4.63;;
65552;SDS011;52465;51.560;14.368;2022-08-19T00:15:09;5.22;;;4.72;;
65552;SDS011;52465;51.560;14.368;2022-08-19T00:17:38;5.20;;;4.70;;
65552;SDS011;52465;51.560;14.368;2022-08-19T00:20:05;5.55;;;4.72;;
65552;SDS011;52465;51.560;14.368;2022-08-19T00:22:32;5.65;;;4.80;;
65552;SDS011;52465;51.560;14.368;2022-08-19T00:24:57;5.20;;;4.60;;
65552;SDS011;52465;51.560;14.368;2022-08-19T00:27:22;4.97;;;4.47;;
65552;SDS011;52465;51.560;14.368;2022-08-19T00:29:48;5.43;;;4.60;;
65552;SDS011;52465;51.560;14.368;2022-08-19T00:32:13;5.65;;;5.15;;
65552;SDS011;52465;51.560;14.368;2022-08-19T00:34:39;5.28;;;4.63;;
65552;SDS011;52465;51.560;14.368;2022-08-19T00:37:04;6.07;;;4.95;;
65552;SDS011;52465;51.560;14.368;2022-08-19T00:39:30;5.13;;;4.63;;
65552;SDS011;52465;51.560;14.368;2022-08-19T00:41:55;5.05;;;4.55;;
65552;SDS011;52465;51.560;14.368;2022-08-19T00:44:23;5.32;;;4.82;;
65552;SDS011;52465;51.560;14.368;2022-08-19T00:46:52;6.00;;;5.40;;
65552;SDS011;52465;51.560;14.368;2022-08-19T00:49:20;5.68;;;5.00;;
65552;SDS011;52465;51.560;14.368;2022-08-19T00:51:52;5.55;;;5.00;;
65552;SDS011;52465;51.560;14.368;2022-08-19T00:54:21;5.30;;;4.80;;
65552;SDS011;52465;51.560;14.368;2022-08-19T00:56:47;6.88;;;5.28;;
65552;SDS011;52465;51.560;14.368;2022-08-19T00:59:14;5.22;;;4.72;;
65552;SDS011;52465;51.560;14.368;2022-08-19T01:01:41;5.00;;;4.47;;
65552;SDS011;52465;51.560;14.368;2022-08-19T01:04:08;5.05;;;4.50;;
65552;SDS011;52465;51.560;14.368;2022-08-19T01:06:35;6.15;;;4.88;;
65552;SDS011;52465;51.560;14.368;2022-08-19T01:09:02;5.55;;;5.00;;
65552;SDS011;52465;51.560;14.368;2022-08-19T01:11:28;5.72;;;5.05;;
65552;SDS011;52465;51.560;14.368;2022-08-19T01:13:56;5.40;;;4.90;;
65552;SDS011;52465;51.560;14.368;2022-08-19T01:16:24;5.15;;;4.65;;
65552;SDS011;52465;51.560;14.368;2022-08-19T01:18:52;5.43;;;4.93;;
65552;SDS011;52465;51.560;14.368;2022-08-19T01:23:56;5.40;;;4.90;;
65552;SDS011;52465;51.560;14.368;2022-08-19T01:26:22;5.18;;;4.68;;
65552;SDS011;52465;51.560;14.368;2022-08-19T01:28:49;5.40;;;4.90;;
65552;SDS011;52465;51.560;14.368;2022-08-19T01:31:21;5.90;;;5.07;;
65552;SDS011;52465;51.560;14.368;2022-08-19T01:33:49;4.88;;;4.38;;
65552;SDS011;52465;51.560;14.368;2022-08-19T01:36:24;5.63;;;5.03;;
65552;SDS011;52465;51.560;14.368;2022-08-19T01:38:54;5.93;;;4.63;;
65552;SDS011;52465;51.560;14.368;2022-08-19T01:41:19;5.28;;;4.78;;
65552;SDS011;52465;51.560;14.368;2022-08-19T01:43:45;5.45;;;4.65;;
65552;SDS011;52465;51.560;14.368;2022-08-19T01:46:11;5.38;;;4.82;;
65552;SDS011;52465;51.560;14.368;2022-08-19T01:48:38;5.10;;;4.60;;
65552;SDS011;52465;51.560;14.368;2022-08-19T01:51:05;5.32;;;4.72;;
65552;SDS011;52465;51.560;14.368;2022-08-19T01:53:31;5.90;;;5.30;;
65552;SDS011;52465;51.560;14.368;2022-08-19T01:55:56;5.25;;;4.75;;
65552;SDS011;52465;51.560;14.368;2022-08-19T01:58:22;5.55;;;4.63;;
65552;SDS011;52465;51.560;14.368;2022-08-19T02:01:01;5.45;;;4.88;;
65552;SDS011;52465;51.560;14.368;2022-08-19T02:03:28;5.45;;;4.95;;
65552;SDS011;52465;51.560;14.368;2022-08-19T02:05:55;6.65;;;5.10;;
65552;SDS011;52465;51.560;14.368;2022-08-19T02:08:22;5.18;;;4.68;;
65552;SDS011;52465;51.560;14.368;2022-08-19T02:10:48;5.32;;;4.78;;
65552;SDS011;52465;51.560;14.368;2022-08-19T02:13:14;6.55;;;5.13;;
65552;SDS011;52465;51.560;14.368;2022-08-19T02:15:40;5.22;;;4.72;;
65552;SDS011;52465;51.560;14.368;2022-08-19T02:18:06;5.65;;;4.88;;
65552;SDS011;52465;51.560;14.368;2022-08-19T02:20:32;5.65;;;5.00;;
65552;SDS011;52465;51.560;14.368;2022-08-19T02:22:57;5.60;;;5.10;;
65552;SDS011;52465;51.560;14.368;2022-08-19T02:25:22;5.50;;;5.00;;
65552;SDS011;52465;51.560;14.368;2022-08-19T02:27:48;5.32;;;4.82;;
65552;SDS011;52465;51.560;14.368;2022-08-19T02:30:14;5.78;;;5.18;;
65552;SDS011;52465;51.560;14.368;2022-08-19T02:32:41;5.30;;;4.70;;
65552;SDS011;52465;51.560;14.368;2022-08-19T02:35:06;4.72;;;4.32;;
65552;SDS011;52465;51.560;14.368;2022-08-19T02:37:32;6.38;;;5.20;;
65552;SDS011;52465;51.560;14.368;2022-08-19T02:40:16;5.07;;;4.57;;
65552;SDS011;52465;51.560;14.368;2022-08-19T02:42:42;5.55;;;4.97;;
65552;SDS011;52465;51.560;14.368;2022-08-19T02:45:08;5.57;;;4.97;;
65552;SDS011;52465;51.560;14.368;2022-08-19T02:47:34;5.53;;;4.55;;
65552;SDS011;52465;51.560;14.368;2022-08-19T02:50:00;5.32;;;4.70;;
65552;SDS011;52465;51.560;14.368;2022-08-19T02:52:27;5.22;;;4.72;;
65552;SDS011;52465;51.560;14.368;2022-08-19T02:54:53;5.22;;;4.72;;
65552;SDS011;52465;51.560;14.368;2022-08-19T02:57:18;5.53;;;4.90;;
65552;SDS011;52465;51.560;14.368;2022-08-19T02:59:44;6.28;;;4.93;;
65552;SDS011;52465;51.560;14.368;2022-08-19T03:02:09;5.25;;;4.75;;
65552;SDS011;52465;51.560;14.368;2022-08-19T03:04:34;5.60;;;4.70;;
65552;SDS011;52465;51.560;14.368;2022-08-19T03:06:59;5.55;;;5.05;;
65552;SDS011;52465;51.560;14.368;2022-08-19T03:09:25;6.10;;;5.32;;
65552;SDS011;52465;51.560;14.368;2022-08-19T03:11:50;6.00;;;5.40;;
65552;SDS011;52465;51.560;14.368;2022-08-19T03:14:15;5.20;;;4.70;;
65552;SDS011;52465;51.560;14.368;2022-08-19T03:16:42;5.95;;;5.20;;
65552;SDS011;52465;51.560;14.368;2022-08-19T03:19:13;6.50;;;5.30;;
65552;SDS011;52465;51.560;14.368;2022-08-19T03:21:40;6.82;;;5.20;;
65552;SDS011;52465;51.560;14.368;2022-08-19T03:24:09;6.57;;;5.07;;
65552;SDS011;52465;51.560;14.368;2022-08-19T03:26:38;5.10;;;4.60;;
65552;SDS011;52465;51.560;14.368;2022-08-19T03:29:05;6.18;;;5.03;;
65552;SDS011;52465;51.560;14.368;2022-08-19T03:31:31;5.47;;;4.97;;
65552;SDS011;52465;51.560;14.368;2022-08-19T03:33:57;5.55;;;5.05;;
65552;SDS011;52465;51.560;14.368;2022-08-19T03:36:23;5.53;;;5.03;;
65552;SDS011;52465;51.560;14.368;2022-08-19T03:38:52;5.63;;;5.00;;
65552;SDS011;52465;51.560;14.368;2022-08-19T03:41:22;5.65;;;5.03;;
65552;SDS011;52465;51.560;14.368;2022-08-19T03:43:57;4.90;;;4.40;;
65552;SDS011;52465;51.560;14.368;2022-08-19T03:46:24;5.43;;;4.93;;
65552;SDS011;52465;51.560;14.368;2022-08-19T03:48:55;5.35;;;4.80;;
65552;SDS011;52465;51.560;14.368;2022-08-19T03:53:51;5.95;;;5.35;;
65552;SDS011;52465;51.560;14.368;2022-08-19T03:56:18;5.97;;;5.20;;
65552;SDS011;52465;51.560;14.368;2022-08-19T03:58:44;5.35;;;4.85;;
65552;SDS011;52465;51.560;14.368;2022-08-19T04:01:17;5.50;;;5.00;;
65552;SDS011;52465;51.560;14.368;2022-08-19T04:03:44;5.82;;;5.03;;
65552;SDS011;52465;51.560;14.368;2022-08-19T04:08:42;6.20;;;5.00;;
65552;SDS011;52465;51.560;14.368;2022-08-19T04:11:10;5.70;;;5.00;;
65552;SDS011;52465;51.560;14.368;2022-08-19T04:16:05;4.93;;;4.43;;
65552;SDS011;52465;51.560;14.368;2022-08-19T04:18:32;5.75;;;4.57;;
65552;SDS011;52465;51.560;14.368;2022-08-19T04:20:58;5.60;;;4.93;;
65552;SDS011;52465;51.560;14.368;2022-08-19T04:23:24;6.93;;;5.63;;
65552;SDS011;52465;51.560;14.368;2022-08-19T04:25:52;5.85;;;5.10;;
65552;SDS011;52465;51.560;14.368;2022-08-19T04:28:22;5.53;;;5.03;;
65552;SDS011;52465;51.560;14.368;2022-08-19T04:30:52;5.50;;;5.00;;
65552;SDS011;52465;51.560;14.368;2022-08-19T04:33:19;7.13;;;5.22;;
65552;SDS011;52465;51.560;14.368;2022-08-19T04:35:47;5.40;;;4.90;;
65552;SDS011;52465;51.560;14.368;2022-08-19T04:38:15;6.03;;;5.35;;
65552;SDS011;52465;51.560;14.368;2022-08-19T04:40:45;5.75;;;5.07;;
65552;SDS011;52465;51.560;14.368;2022-08-19T04:43:31;5.45;;;4.95;;
65552;SDS011;52465;51.560;14.368;2022-08-19T04:45:57;5.90;;;5.30;;
65552;SDS011;52465;51.560;14.368;2022-08-19T04:48:23;5.25;;;4.75;;
65552;SDS011;52465;51.560;14.368;2022-08-19T04:50:55;5.45;;;4.88;;
65552;SDS011;52465;51.560;14.368;2022-08-19T04:53:25;5.80;;;4.85;;
65552;SDS011;52465;51.560;14.368;2022-08-19T04:55:55;5.75;;;5.20;;
65552;SDS011;52465;51.560;14.368;2022-08-19T04:58:21;5.90;;;5.30;;
65552;SDS011;52465;51.560;14.368;2022-08-19T05:00:48;5.88;;;5.28;;
65552;SDS011;52465;51.560;14.368;2022-08-19T05:03:13;6.05;;;5.30;;
65552;SDS011;52465;51.560;14.368;2022-08-19T05:05:42;5.10;;;4.63;;
65552;SDS011;52465;51.560;14.368;2022-08-19T05:08:13;5.82;;;5.13;;
65552;SDS011;52465;51.560;14.368;2022-08-19T05:10:44;6.05;;;5.43;;
65552;SDS011;52465;51.560;14.368;2022-08-19T05:13:12;5.28;;;4.78;;
65552;SDS011;52465;51.560;14.368;2022-08-19T05:15:37;5.22;;;4.72;;
65552;SDS011;52465;51.560;14.368;2022-08-19T05:18:02;5.30;;;4.80;;
65552;SDS011;52465;51.560;14.368;2022-08-19T05:20:46;6.18;;;5.07;;
65552;SDS011;52465;51.560;14.368;2022-08-19T05:23:30;5.80;;;4.88;;
65552;SDS011;52465;51.560;14.368;2022-08-19T05:25:55;5.50;;;4.80;;
65552;SDS011;52465;51.560;14.368;2022-08-19T05:28:21;5.88;;;5.32;;
65552;SDS011;52465;51.560;14.368;2022-08-19T05:30:46;6.03;;;5.00;;
65552;SDS011;52465;51.560;14.368;2022-08-19T05:33:13;5.95;;;5.15;;
65552;SDS011;52465;51.560;14.368;2022-08-19T05:35:39;6.43;;;5.63;;
65552;SDS011;52465;51.560;14.368;2022-08-19T05:38:06;6.28;;;5.15;;
65552;SDS011;52465;51.560;14.368;2022-08-19T05:40:34;5.47;;;4.97;;
65552;SDS011;52465;51.560;14.368;2022-08-19T05:43:04;5.65;;;5.15;;
65552;SDS011;52465;51.560;14.368;2022-08-19T05:45:30;5.63;;;5.03;;
65552;SDS011;52465;51.560;14.368;2022-08-19T05:47:56;6.18;;;5.45;;
65552;SDS011;52465;51.560;14.368;2022-08-19T05:50:22;5.75;;;5.18;;
65552;SDS011;52465;51.560;14.368;2022-08-19T05:52:47;6.28;;;5.30;;
65552;SDS011;52465;51.560;14.368;2022-08-19T05:55:13;5.82;;;5.20;;
65552;SDS011;52465;51.560;14.368;2022-08-19T05:57:38;5.90;;;5.30;;
65552;SDS011;52465;51.560;14.368;2022-08-19T06:00:05;5.78;;;5.25;;
65552;SDS011;52465;51.560;14.368;2022-08-19T06:02:35;5.53;;;5.03;;
65552;SDS011;52465;51.560;14.368;2022-08-19T06:05:00;6.55;;;5.95;;
65552;SDS011;52465;51.560;14.368;2022-08-19T06:07:27;5.60;;;5.10;;
65552;SDS011;52465;51.560;14.368;2022-08-19T06:09:53;6.22;;;5.60;;
65552;SDS011;52465;51.560;14.368;2022-08-19T06:12:19;6.07;;;5.45;;
65552;SDS011;52465;51.560;14.368;2022-08-19T06:14:44;5.75;;;5.18;;
65552;SDS011;52465;51.560;14.368;2022-08-19T06:17:09;7.03;;;5.53;;
65552;SDS011;52465;51.560;14.368;2022-08-19T06:19:36;6.00;;;5.32;;
65552;SDS011;52465;51.560;14.368;2022-08-19T06:22:04;6.13;;;5.07;;
65552;SDS011;52465;51.560;14.368;2022-08-19T06:24:31;5.97;;;5.25;;
65552;SDS011;52465;51.560;14.368;2022-08-19T06:26:57;6.13;;;5.40;;
65552;SDS011;52465;51.560;14.368;2022-08-19T06:29:24;6.25;;;5.65;;
65552;SDS011;52465;51.560;14.368;2022-08-19T06:31:52;5.78;;;5.28;;
65552;SDS011;52465;51.560;14.368;2022-08-19T06:34:20;6.05;;;5.43;;
65552;SDS011;52465;51.560;14.368;2022-08-19T06:36:49;6.32;;;5.53;;
65552;SDS011;52465;51.560;14.368;2022-08-19T06:39:18;5.40;;;4.90;;
65552;SDS011;52465;51.560;14.368;2022-08-19T06:41:49;6.63;;;5.63;;
65552;SDS011;52465;51.560;14.368;2022-08-19T06:44:18;6.18;;;5.53;;
65552;SDS011;52465;51.560;14.368;2022-08-19T06:46:44;6.05;;;5.40;;
65552;SDS011;52465;51.560;14.368;2022-08-19T06:49:10;6.07;;;5.30;;
65552;SDS011;52465;51.560;14.368;2022-08-19T06:51:39;6.20;;;5.20;;
65552;SDS011;52465;51.560;14.368;2022-08-19T06:54:09;6.05;;;5.30;;
65552;SDS011;52465;51.560;14.368;2022-08-19T06:56:35;6.50;;;5.68;;
65552;SDS011;52465;51.560;14.368;2022-08-19T06:59:02;6.38;;;5.20;;
65552;SDS011;52465;51.560;14.368;2022-08-19T07:01:30;5.78;;;5.18;;
65552;SDS011;52465;51.560;14.368;2022-08-19T07:03:59;6.67;;;5.97;;
65552;SDS011;52465;51.560;14.368;2022-08-19T07:06:26;6.10;;;5.50;;
65552;SDS011;52465;51.560;14.368;2022-08-19T07:08:51;6.43;;;5.72;;
65552;SDS011;52465;51.560;14.368;2022-08-19T07:11:17;6.97;;;5.57;;
65552;SDS011;52465;51.560;14.368;2022-08-19T07:13:43;6.85;;;5.97;;
65552;SDS011;52465;51.560;14.368;2022-08-19T07:16:12;5.88;;;5.25;;
65552;SDS011;52465;51.560;14.368;2022-08-19T07:18:39;6.82;;;5.68;;
65552;SDS011;52465;51.560;14.368;2022-08-19T07:21:06;6.25;;;5.32;;
65552;SDS011;52465;51.560;14.368;2022-08-19T07:23:39;5.97;;;5.38;;
65552;SDS011;52465;51.560;14.368;2022-08-19T07:26:06;5.65;;;5.15;;
65552;SDS011;52465;51.560;14.368;2022-08-19T07:28:38;6.15;;;5.28;;
65552;SDS011;52465;51.560;14.368;2022-08-19T07:31:05;6.07;;;5.03;;
65552;SDS011;52465;51.560;14.368;2022-08-19T07:33:32;6.00;;;5.40;;
65552;SDS011;52465;51.560;14.368;2022-08-19T07:36:01;6.43;;;5.70;;
65552;SDS011;52465;51.560;14.368;2022-08-19T07:38:28;8.02;;;5.70;;
65552;SDS011;52465;51.560;14.368;2022-08-19T07:40:53;5.95;;;5.18;;
65552;SDS011;52465;51.560;14.368;2022-08-19T07:43:19;5.95;;;5.30;;
65552;SDS011;52465;51.560;14.368;2022-08-19T07:45:45;6.68;;;5.97;;
65552;SDS011;52465;51.560;14.368;2022-08-19T07:48:12;6.18;;;5.55;;
65552;SDS011;52465;51.560;14.368;2022-08-19T07:50:37;6.95;;;5.90;;
65552;SDS011;52465;51.560;14.368;2022-08-19T07:53:03;6.32;;;5.70;;
65552;SDS011;52465;51.560;14.368;2022-08-19T07:55:28;7.25;;;5.90;;
65552;SDS011;52465;51.560;14.368;2022-08-19T07:57:54;7.65;;;5.80;;
65552;SDS011;52465;51.560;14.368;2022-08-19T08:00:19;6.65;;;5.88;;
65552;SDS011;52465;51.560;14.368;2022-08-19T08:02:45;6.88;;;5.90;;
65552;SDS011;52465;51.560;14.368;2022-08-19T08:05:10;6.20;;;5.60;;
65552;SDS011;52465;51.560;14.368;2022-08-19T08:07:54;6.78;;;5.93;;
65552;SDS011;52465;51.560;14.368;2022-08-19T08:10:38;7.07;;;5.50;;
65552;SDS011;52465;51.560;14.368;2022-08-19T08:13:04;9.05;;;5.97;;
65552;SDS011;52465;51.560;14.368;2022-08-19T08:15:30;6.60;;;5.90;;
65552;SDS011;52465;51.560;14.368;2022-08-19T08:17:56;8.05;;;6.30;;
65552;SDS011;52465;51.560;14.368;2022-08-19T08:20:22;6.72;;;6.00;;
65552;SDS011;52465;51.560;14.368;2022-08-19T08:22:48;6.72;;;6.00;;
65552;SDS011;52465;51.560;14.368;2022-08-19T08:25:32;7.18;;;6.20;;
65552;SDS011;52465;51.560;14.368;2022-08-19T08:28:00;7.10;;;6.40;;
65552;SDS011;52465;51.560;14.368;2022-08-19T08:30:25;6.50;;;5.60;;
65552;SDS011;52465;51.560;14.368;2022-08-19T08:32:52;6.75;;;6.05;;
65552;SDS011;52465;51.560;14.368;2022-08-19T08:35:18;7.47;;;6.20;;
65552;SDS011;52465;51.560;14.368;2022-08-19T08:37:46;6.70;;;5.88;;
65552;SDS011;52465;51.560;14.368;2022-08-19T08:40:28;7.22;;;6.32;;
65552;SDS011;52465;51.560;14.368;2022-08-19T08:42:56;6.38;;;5.78;;
65552;SDS011;52465;51.560;14.368;2022-08-19T08:45:27;6.75;;;6.00;;
65552;SDS011;52465;51.560;14.368;2022-08-19T08:47:53;6.70;;;5.65;;
65552;SDS011;52465;51.560;14.368;2022-08-19T08:50:35;6.43;;;5.68;;
65552;SDS011;52465;51.560;14.368;2022-08-19T08:53:06;6.72;;;6.03;;
65552;SDS011;52465;51.560;14.368;2022-08-19T08:55:33;6.07;;;5.47;;
65552;SDS011;52465;51.560;14.368;2022-08-19T09:00:32;6.68;;;5.93;;
65552;SDS011;52465;51.560;14.368;2022-08-19T09:02:59;6.85;;;6.00;;
65552;SDS011;52465;51.560;14.368;2022-08-19T09:05:30;6.55;;;5.75;;
65552;SDS011;52465;51.560;14.368;2022-08-19T09:08:04;7.28;;;6.10;;
65552;SDS011;52465;51.560;14.368;2022-08-19T09:10:43;6.82;;;6.10;;
65552;SDS011;52465;51.560;14.368;2022-08-19T09:15:58;6.05;;;5.45;;
65552;SDS011;52465;51.560;14.368;2022-08-19T09:18:38;6.18;;;5.35;;
65552;SDS011;52465;51.560;14.368;2022-08-19T09:21:06;6.07;;;5.47;;
65552;SDS011;52465;51.560;14.368;2022-08-19T09:23:33;7.10;;;6.05;;
65552;SDS011;52465;51.560;14.368;2022-08-19T09:25:59;6.68;;;5.43;;
65552;SDS011;52465;51.560;14.368;2022-08-19T09:28:24;8.47;;;5.80;;
65552;SDS011;52465;51.560;14.368;2022-08-19T09:30:50;7.63;;;5.97;;
65552;SDS011;52465;51.560;14.368;2022-08-19T09:33:16;7.28;;;6.10;;
65552;SDS011;52465;51.560;14.368;2022-08-19T09:35:42;6.32;;;5.72;;
65552;SDS011;52465;51.560;14.368;2022-08-19T09:38:07;6.50;;;5.90;;
65552;SDS011;52465;51.560;14.368;2022-08-19T09:40:33;6.80;;;5.85;;
65552;SDS011;52465;51.560;14.368;2022-08-19T09:42:58;6.20;;;5.57;;
65552;SDS011;52465;51.560;14.368;2022-08-19T09:45:27;7.28;;;6.30;;
65552;SDS011;52465;51.560;14.368;2022-08-19T09:47:53;6.43;;;5.72;;
65552;SDS011;52465;51.560;14.368;2022-08-19T09:50:19;5.93;;;5.32;;
65552;SDS011;52465;51.560;14.368;2022-08-19T09:52:44;6.35;;;5.75;;
65552;SDS011;52465;51.560;14.368;2022-08-19T09:55:10;7.43;;;6.13;;
65552;SDS011;52465;51.560;14.368;2022-08-19T09:57:36;6.38;;;5.78;;
65552;SDS011;52465;51.560;14.368;2022-08-19T10:00:06;6.88;;;6.03;;
65552;SDS011;52465;51.560;14.368;2022-08-19T10:05:03;5.90;;;5.30;;
65552;SDS011;52465;51.560;14.368;2022-08-19T10:07:47;7.03;;;5.90;;
65552;SDS011;52465;51.560;14.368;2022-08-19T10:10:13;6.60;;;5.80;;
65552;SDS011;52465;51.560;14.368;2022-08-19T10:12:38;6.57;;;5.90;;
65552;SDS011;52465;51.560;14.368;2022-08-19T10:15:05;6.22;;;5.32;;
65552;SDS011;52465;51.560;14.368;2022-08-19T10:17:31;6.38;;;5.78;;
65552;SDS011;52465;51.560;14.368;2022-08-19T10:19:58;6.80;;;5.65;;
65552;SDS011;52465;51.560;14.368;2022-08-19T10:22:23;6.75;;;5.53;;
65552;SDS011;52465;51.560;14.368;2022-08-19T10:24:49;6.55;;;5.95;;
65552;SDS011;52465;51.560;14.368;2022-08-19T10:27:14;6.55;;;5.85;;
65552;SDS011;52465;51.560;14.368;2022-08-19T10:29:40;7.43;;;6.22;;
65552;SDS011;52465;51.560;14.368;2022-08-19T10:32:06;6.55;;;5.45;;
65552;SDS011;52465;51.560;14.368;2022-08-19T10:34:33;6.38;;;5.03;;
65552;SDS011;52465;51.560;14.368;2022-08-19T10:37:01;5.68;;;5.18;;
65552;SDS011;52465;51.560;14.368;2022-08-19T10:39:30;6.60;;;5.53;;
65552;SDS011;52465;51.560;14.368;2022-08-19T10:41:56;6.22;;;5.63;;
65552;SDS011;52465;51.560;14.368;2022-08-19T10:44:22;6.40;;;5.80;;
65552;SDS011;52465;51.560;14.368;2022-08-19T10:46:48;5.93;;;5.28;;
65552;SDS011;52465;51.560;14.368;2022-08-19T10:49:13;6.88;;;5.45;;
65552;SDS011;52465;51.560;14.368;2022-08-19T10:51:42;6.97;;;6.28;;
65552;SDS011;52465;51.560;14.368;2022-08-19T10:54:26;6.30;;;5.70;;
65552;SDS011;52465;51.560;14.368;2022-08-19T10:57:12;6.55;;;5.88;;
65552;SDS011;52465;51.560;14.368;2022-08-19T10:59:37;6.65;;;5.95;;
65552;SDS011;52465;51.560;14.368;2022-08-19T11:02:04;6.57;;;5.88;;
65552;SDS011;52465;51.560;14.368;2022-08-19T11:04:31;6.32;;;5.57;;
65552;SDS011;52465;51.560;14.368;2022-08-19T11:06:58;6.60;;;5.95;;
65552;SDS011;52465;51.560;14.368;2022-08-19T11:09:24;6.15;;;5.47;;
65552;SDS011;52465;51.560;14.368;2022-08-19T11:11:51;7.75;;;5.90;;
65552;SDS011;52465;51.560;14.368;2022-08-19T11:14:18;6.07;;;5.38;;
65552;SDS011;52465;51.560;14.368;2022-08-19T11:16:45;6.90;;;6.00;;
65552;SDS011;52465;51.560;14.368;2022-08-19T11:19:12;6.50;;;5.80;;
65552;SDS011;52465;51.560;14.368;2022-08-19T11:21:42;6.57;;;5.78;;
65552;SDS011;52465;51.560;14.368;2022-08-19T11:24:10;5.93;;;5.28;;
65552;SDS011;52465;51.560;14.368;2022-08-19T11:26:38;6.53;;;5.93;;
65552;SDS011;52465;51.560;14.368;2022-08-19T11:29:06;6.25;;;5.65;;
65552;SDS011;52465;51.560;14.368;2022-08-19T11:31:36;7.20;;;6.32;;
65552;SDS011;52465;51.560;14.368;2022-08-19T11:34:04;6.32;;;5.72;;
65552;SDS011;52465;51.560;14.368;2022-08-19T11:36:32;6.18;;;5.57;;
65552;SDS011;52465;51.560;14.368;2022-08-19T11:38:58;6.40;;;5.65;;
65552;SDS011;52465;51.560;14.368;2022-08-19T11:41:24;6.50;;;5.68;;
65552;SDS011;52465;51.560;14.368;2022-08-19T11:43:50;7.50;;;6.22;;
65552;SDS011;52465;51.560;14.368;2022-08-19T11:46:17;6.90;;;6.13;;
65552;SDS011;52465;51.560;14.368;2022-08-19T11:48:43;7.75;;;6.25;;
65552;SDS011;52465;51.560;14.368;2022-08-19T11:51:10;6.70;;;6.00;;
65552;SDS011;52465;51.560;14.368;2022-08-19T11:53:40;6.82;;;6.13;;
65552;SDS011;52465;51.560;14.368;2022-08-19T11:56:07;7.88;;;5.82;;
65552;SDS011;52465;51.560;14.368;2022-08-19T11:58:33;6.65;;;5.95;;
65552;SDS011;52465;51.560;14.368;2022-08-19T12:00:59;7.40;;;5.97;;
65552;SDS011;52465;51.560;14.368;2022-08-19T12:03:25;6.68;;;6.00;;
65552;SDS011;52465;51.560;14.368;2022-08-19T12:05:51;7.13;;;6.43;;
65552;SDS011;52465;51.560;14.368;2022-08-19T12:08:16;6.97;;;6.10;;
65552;SDS011;52465;51.560;14.368;2022-08-19T12:10:43;6.82;;;6.05;;
65552;SDS011;52465;51.560;14.368;2022-08-19T12:13:10;6.93;;;6.25;;
65552;SDS011;52465;51.560;14.368;2022-08-19T12:15:38;8.23;;;6.40;;
65552;SDS011;52465;51.560;14.368;2022-08-19T12:18:10;8.98;;;8.02;;
65552;SDS011;52465;51.560;14.368;2022-08-19T12:20:37;14.52;;;9.30;;
65552;SDS011;52465;51.560;14.368;2022-08-19T12:23:04;21.80;;;10.85;;
65552;SDS011;52465;51.560;14.368;2022-08-19T12:25:31;12.95;;;9.43;;
65552;SDS011;52465;51.560;14.368;2022-08-19T12:27:56;13.05;;;9.48;;
65552;SDS011;52465;51.560;14.368;2022-08-19T12:30:22;13.63;;;9.35;;
65552;SDS011;52465;51.560;14.368;2022-08-19T12:32:47;12.75;;;10.15;;
65552;SDS011;52465;51.560;14.368;2022-08-19T12:35:12;14.15;;;9.70;;
65552;SDS011;52465;51.560;14.368;2022-08-19T12:37:38;29.10;;;11.35;;
65552;SDS011;52465;51.560;14.368;2022-08-19T12:40:09;19.50;;;10.52;;
65552;SDS011;52465;51.560;14.368;2022-08-19T12:42:36;21.95;;;10.88;;
65552;SDS011;52465;51.560;14.368;2022-08-19T12:45:07;26.40;;;11.63;;
65552;SDS011;52465;51.560;14.368;2022-08-19T12:47:33;23.10;;;10.82;;
65552;SDS011;52465;51.560;14.368;2022-08-19T12:49:59;21.85;;;11.27;;
65552;SDS011;52465;51.560;14.368;2022-08-19T12:52:25;20.25;;;11.68;;
65552;SDS011;52465;51.560;14.368;2022-08-19T12:54:52;20.08;;;11.00;;
65552;SDS011;52465;51.560;14.368;2022-08-19T12:57:19;26.48;;;12.52;;
65552;SDS011;52465;51.560;14.368;2022-08-19T12:59:44;366.52;;;32.40;;
65552;SDS011;52465;51.560;14.368;2022-08-19T13:02:09;268.17;;;25.97;;
65552;SDS011;52465;51.560;14.368;2022-08-19T13:04:35;177.77;;;20.48;;
65552;SDS011;52465;51.560;14.368;2022-08-19T13:07:02;153.45;;;18.50;;
65552;SDS011;52465;51.560;14.368;2022-08-19T13:09:28;55.10;;;14.13;;
65552;SDS011;52465;51.560;14.368;2022-08-19T13:11:53;25.60;;;12.48;;
65552;SDS011;52465;51.560;14.368;2022-08-19T13:14:18;195.50;;;24.90;;
65552;SDS011;52465;51.560;14.368;2022-08-19T13:16:44;91.07;;;15.60;;
65552;SDS011;52465;51.560;14.368;2022-08-19T13:19:09;45.97;;;15.30;;
65552;SDS011;52465;51.560;14.368;2022-08-19T13:21:37;28.13;;;15.15;;
65552;SDS011;52465;51.560;14.368;2022-08-19T13:24:02;22.95;;;13.05;;
65552;SDS011;52465;51.560;14.368;2022-08-19T13:26:28;25.35;;;13.43;;
65552;SDS011;52465;51.560;14.368;2022-08-19T13:28:56;29.70;;;13.48;;
65552;SDS011;52465;51.560;14.368;2022-08-19T13:31:41;19.35;;;12.48;;
65552;SDS011;52465;51.560;14.368;2022-08-19T13:34:30;19.15;;;12.52;;
65552;SDS011;52465;51.560;14.368;2022-08-19T13:36:59;19.52;;;11.77;;
65552;SDS011;52465;51.560;14.368;2022-08-19T13:39:27;17.75;;;12.30;;
65552;SDS011;52465;51.560;14.368;2022-08-19T13:41:53;21.77;;;12.77;;
65552;SDS011;52465;51.560;14.368;2022-08-19T13:44:18;22.30;;;12.87;;
65552;SDS011;52465;51.560;14.368;2022-08-19T13:46:44;18.80;;;12.80;;
65552;SDS011;52465;51.560;14.368;2022-08-19T13:49:11;19.10;;;12.65;;
65552;SDS011;52465;51.560;14.368;2022-08-19T13:51:40;18.67;;;12.05;;
65552;SDS011;52465;51.560;14.368;2022-08-19T13:54:06;20.25;;;14.35;;
65552;SDS011;52465;51.560;14.368;2022-08-19T13:56:33;17.73;;;12.57;;
65552;SDS011;52465;51.560;14.368;2022-08-19T13:58:59;19.73;;;13.13;;
65552;SDS011;52465;51.560;14.368;2022-08-19T14:01:24;18.88;;;12.85;;
65552;SDS011;52465;51.560;14.368;2022-08-19T14:03:51;18.05;;;12.95;;
65552;SDS011;52465;51.560;14.368;2022-08-19T14:06:17;19.95;;;13.30;;
65552;SDS011;52465;51.560;14.368;2022-08-19T14:08:43;19.83;;;12.73;;
65552;SDS011;52465;51.560;14.368;2022-08-19T14:11:08;18.48;;;12.95;;
65552;SDS011;52465;51.560;14.368;2022-08-19T14:13:34;17.80;;;12.75;;
65552;SDS011;52465;51.560;14.368;2022-08-19T14:16:00;17.30;;;12.15;;
65552;SDS011;52465;51.560;14.368;2022-08-19T14:18:25;18.95;;;12.70;;
65552;SDS011;52465;51.560;14.368;2022-08-19T14:20:50;18.33;;;11.27;;
65552;SDS011;52465;51.560;14.368;2022-08-19T14:23:16;15.63;;;11.30;;
65552;SDS011;52465;51.560;14.368;2022-08-19T14:25:42;17.45;;;12.05;;
65552;SDS011;52465;51.560;14.368;2022-08-19T14:28:07;20.17;;;10.85;;
65552;SDS011;52465;51.560;14.368;2022-08-19T14:30:33;23.08;;;11.88;;
65552;SDS011;52465;51.560;14.368;2022-08-19T14:33:02;18.33;;;11.23;;
65552;SDS011;52465;51.560;14.368;2022-08-19T14:35:30;17.65;;;11.05;;
65552;SDS011;52465;51.560;14.368;2022-08-19T14:37:59;17.77;;;11.32;;
65552;SDS011;52465;51.560;14.368;2022-08-19T14:40:26;18.35;;;10.65;;
65552;SDS011;52465;51.560;14.368;2022-08-19T14:42:54;20.38;;;11.52;;
65552;SDS011;52465;51.560;14.368;2022-08-19T14:45:29;22.95;;;10.98;;
65552;SDS011;52465;51.560;14.368;2022-08-19T14:47:55;23.00;;;12.18;;
65552;SDS011;52465;51.560;14.368;2022-08-19T14:50:21;22.52;;;12.27;;